Airfield :
LOGIN :

Register | Disclaimer

   EN    FR    IT 

 










Legend :    VFR   Marginal VFR   IFR   Intensive IFR   Very Intensive IFR
Visi :
Ceiling :
>= 8 km
>= 3000ft
5 to 8 km
1000 to 3000 ft
1500m to 5 km
500 to 1000 ft
800 to 1500m
200 to 500 ft
< 800m
< 200 ft
Symbols :   Thunderstorms  Fog  Heavy snow  Heavy precipitations  Wind > 20 kt
SIGMETs :     Misc.  Thunderstorms  Icing  Turbulence  Mountain Waves  Volcanic Ashes






- Airport Elevation : 538 ft
- IATA code : TNF


LFPN - Toussus Le Noble

CURRENT METAR :
  • 151200Z AUTO 24011KT 190V260 CAVOK 10/05 Q1005 NOSIG

EXPIRED METARs :
  • 151130Z AUTO 24009KT CAVOK 09/05 Q1005 TEMPO 24015G25KT 4000 SHRA SCT030TCU BKN060
  • 151100Z AUTO 24010KT CAVOK 09/04 Q1005 TEMPO 24015G25KT 4000 SHRA SCT030TCU BKN060
  • 151030Z AUTO 24008KT CAVOK 08/05 Q1005 TEMPO 24015G25KT 4000 SHRA SCT030TCU BKN060
  • 151000Z AUTO 24009KT CAVOK 08/05 Q1005 TEMPO 24015G25KT 4000 SHRA SCT030TCU BKN060
  • 150930Z AUTO 24010KT CAVOK 08/05 Q1004 TEMPO 24015G25KT 4000 SHRA SCT030TCU BKN060

TAF TAF LFPN
Valid from the 15 at 12:00 until the 15 at 21:00 UTC


151100Z 1512/1521 23010KT 9999 SCT030
PROB30
TEMPO 1517/1521 -RA SCT012 BKN040
ATIS : +33 1 39 56 54 70



MET'MAP, your aeronautical weather chart ! - Copyright ORBIFLY December 2007 - Disclaimer

ORBIFLY MET'MAP TEAM :

Programming & Development : Alexandra Zaïnal
Concept & original design : Baudouin d'Aumeries
Assistance for programming : Marc-Olivier Méhu
Technical & hardware support : Manuel Goepfert

Contact : metmap@orbifly.com




SOURCES & CREDITS :

   NOAA